createdAt,value
2018-04-10T00:01:13.761Z,100318.09
2018-04-10T00:03:42.076Z,100327.94
2018-04-10T00:06:10.434Z,100321.94
2018-04-10T00:08:38.933Z,100318.84
2018-04-10T00:11:07.313Z,100312.01
2018-04-10T00:13:36.475Z,100312.98
2018-04-10T00:16:04.852Z,100314.73
2018-04-10T00:18:33.167Z,100321.14
2018-04-10T00:21:01.495Z,100314.91
2018-04-10T00:23:29.846Z,100304.70
2018-04-10T00:25:59.076Z,100313.88
2018-04-10T00:28:27.396Z,100311.57
2018-04-10T00:30:55.811Z,100309.75
2018-04-10T00:33:24.167Z,100308.41
2018-04-10T00:35:52.506Z,100308.67
2018-04-10T00:38:20.927Z,100307.17
2018-04-10T00:40:49.570Z,100309.77
2018-04-10T00:43:17.941Z,100306.66
2018-04-10T00:45:46.284Z,100310.72
2018-04-10T00:48:15.410Z,100301.66
2018-04-10T00:50:43.724Z,100305.05
2018-04-10T00:53:29.824Z,100298.33
2018-04-10T00:55:58.160Z,100295.13
2018-04-10T00:58:26.528Z,100298.45
2018-04-10T01:00:54.947Z,100297.34
2018-04-10T01:03:23.305Z,100295.89
2018-04-10T01:05:51.656Z,100302.03
2018-04-10T01:08:20.045Z,100299.98
2018-04-10T01:10:48.439Z,100303.07
2018-04-10T01:13:16.787Z,100298.56
2018-04-10T01:15:46.141Z,100300.39
2018-04-10T01:18:14.454Z,100295.76
2018-04-10T01:20:42.806Z,100295.75
2018-04-10T01:23:11.183Z,100294.61
2018-04-10T01:25:39.528Z,100301.05
2018-04-10T01:28:07.872Z,100302.69
2018-04-10T01:30:36.996Z,100295.99
2018-04-10T01:33:05.321Z,100297.11
2018-04-10T01:35:34.419Z,100296.16
2018-04-10T01:38:02.844Z,100298.82
2018-04-10T01:40:31.164Z,100293.78
2018-04-10T01:42:59.746Z,100292.80
2018-04-10T01:45:28.116Z,100295.43
2018-04-10T01:47:56.443Z,100297.77
2018-04-10T01:50:24.779Z,100296.91
2018-04-10T01:52:53.131Z,100291.31
2018-04-10T01:55:21.662Z,100296.73
2018-04-10T01:57:49.964Z,100294.86
2018-04-10T02:00:18.853Z,100297.87
2018-04-10T02:02:47.203Z,100302.61
2018-04-10T02:05:16.346Z,100299.77
2018-04-10T02:07:44.698Z,100301.13
2018-04-10T02:10:13.009Z,100294.84
2018-04-10T02:15:14.914Z,100308.21
2018-04-10T02:17:43.248Z,100305.71
2018-04-10T02:20:11.603Z,100301.16
2018-04-10T02:22:40.698Z,100311.59
2018-04-10T02:25:09.084Z,100307.14
2018-04-10T02:27:38.150Z,100301.45
2018-04-10T02:30:06.491Z,100302.09
2018-04-10T02:32:34.816Z,100304.23
2018-04-10T02:35:03.134Z,100301.50
2018-04-10T02:37:31.474Z,100303.64
2018-04-10T02:39:59.802Z,100302.78
2018-04-10T02:42:28.108Z,100305.10
2018-04-10T02:44:56.972Z,100300.27
2018-04-10T02:47:25.302Z,100302.57
2018-04-10T02:49:53.665Z,100304.06
2018-04-10T02:52:22.007Z,100309.41
2018-04-10T02:54:50.339Z,100303.41
2018-04-10T02:57:19.495Z,100305.53
2018-04-10T02:59:47.821Z,100310.28
2018-04-10T03:02:16.166Z,100313.12
2018-04-10T03:04:44.495Z,100306.09
2018-04-10T03:07:13.117Z,100310.09
2018-04-10T03:09:41.424Z,100307.66
2018-04-10T03:12:09.731Z,100303.66
2018-04-10T03:14:38.073Z,100304.20
2018-04-10T03:17:06.399Z,100301.78
2018-04-10T03:19:35.498Z,100300.63
2018-04-10T03:22:03.864Z,100302.52
2018-04-10T03:24:32.175Z,100296.89
2018-04-10T03:27:00.535Z,100303.50
2018-04-10T03:29:29.101Z,100296.03
2018-04-10T03:31:57.430Z,100300.67
2018-04-10T03:34:25.743Z,100315.49
2018-04-10T03:36:54.093Z,100312.34
2018-04-10T03:39:22.413Z,100315.63
2018-04-10T03:41:51.550Z,100315.63
2018-04-10T03:44:19.920Z,100317.52
2018-04-10T03:46:48.236Z,100320.88
2018-04-10T03:49:16.567Z,100317.08
2018-04-10T03:51:45.417Z,100318.34
2018-04-10T03:54:13.733Z,100321.52
2018-04-10T03:56:42.044Z,100315.92
2018-04-10T04:01:43.805Z,100321.39
2018-04-10T04:04:12.169Z,100319.92
2018-04-10T04:06:40.532Z,100323.80
2018-04-10T04:09:09.628Z,100323.39
2018-04-10T04:11:38.970Z,100326.84
2018-04-10T04:14:07.313Z,100324.53
2018-04-10T04:16:53.254Z,100326.94
2018-04-10T04:19:39.108Z,100327.34
2018-04-10T04:22:25.170Z,100326.16
2018-04-10T04:24:53.527Z,100325.01
2018-04-10T04:27:21.865Z,100321.83
2018-04-10T04:29:50.654Z,100328.78
2018-04-10T04:32:19.085Z,100333.73
2018-04-10T04:34:47.440Z,100330.16
2018-04-10T04:37:15.926Z,100331.58
2018-04-10T04:39:44.259Z,100336.13
2018-04-10T04:42:13.345Z,100337.31
2018-04-10T04:44:42.443Z,100337.19
2018-04-10T04:47:11.682Z,100341.44
2018-04-10T04:49:40.073Z,100346.84
2018-04-10T04:52:08.994Z,100345.70
2018-04-10T04:54:37.472Z,100348.44
2018-04-10T04:57:05.853Z,100350.03
2018-04-10T04:59:35.165Z,100346.23
2018-04-10T05:02:04.333Z,100349.28
2018-04-10T05:04:32.684Z,100345.71
2018-04-10T05:07:01.058Z,100343.93
2018-04-10T05:09:29.394Z,100350.44
2018-04-10T05:11:57.705Z,100350.55
2018-04-10T05:14:26.229Z,100351.91
2018-04-10T05:16:54.536Z,100348.64
2018-04-10T05:19:22.858Z,100354.25
2018-04-10T05:21:51.188Z,100356.67
2018-04-10T05:24:19.521Z,100356.04
2018-04-10T05:26:47.864Z,100361.38
2018-04-10T05:29:16.991Z,100358.87
2018-04-10T05:31:45.325Z,100372.09
2018-04-10T05:34:13.648Z,100372.31
2018-04-10T05:36:42.043Z,100370.08
2018-04-10T05:39:10.375Z,100375.98
2018-04-10T05:41:38.688Z,100378.29
2018-04-10T05:44:07.031Z,100371.80
2018-04-10T05:46:36.291Z,100368.45
2018-04-10T05:49:04.634Z,100377.49
2018-04-10T05:51:33.042Z,100388.64
2018-04-10T05:54:01.354Z,100385.84
2018-04-10T05:56:29.673Z,100381.32
2018-04-10T05:58:58.451Z,100387.31
2018-04-10T06:01:26.783Z,100389.83
2018-04-10T06:03:55.166Z,100393.17
2018-04-10T06:06:23.500Z,100389.47
2018-04-10T06:08:51.822Z,100392.80
2018-04-10T06:11:20.183Z,100397.84
2018-04-10T06:13:48.540Z,100397.74
2018-04-10T06:16:16.848Z,100393.91
2018-04-10T06:18:45.170Z,100391.08
2018-04-10T06:21:14.316Z,100386.44
2018-04-10T06:23:42.637Z,100391.34
2018-04-10T06:26:11.716Z,100394.13
2018-04-10T06:28:40.066Z,100384.53
2018-04-10T06:31:08.474Z,100383.02
2018-04-10T06:33:36.840Z,100389.87
2018-04-10T06:36:05.195Z,100378.81
2018-04-10T06:38:33.529Z,100381.72
2018-04-10T06:41:02.650Z,100375.25
2018-04-10T06:43:31.152Z,100378.92
2018-04-10T06:45:59.465Z,100382.45
2018-04-10T06:48:27.974Z,100384.26
2018-04-10T06:50:57.075Z,100386.63
2018-04-10T06:53:26.144Z,100382.95
2018-04-10T06:55:54.442Z,100379.89
2018-04-10T06:58:23.600Z,100379.16
2018-04-10T07:00:51.927Z,100373.80
2018-04-10T07:03:20.249Z,100372.70
2018-04-10T07:05:48.751Z,100367.62
2018-04-10T07:08:17.101Z,100369.95
2018-04-10T07:10:45.441Z,100381.17
2018-04-10T07:13:13.811Z,100384.07
2018-04-10T07:15:42.164Z,100384.61
2018-04-10T07:18:10.476Z,100368.65
2018-04-10T07:20:38.826Z,100368.67
2018-04-10T07:23:07.164Z,100370.98
2018-04-10T07:25:35.508Z,100368.23
2018-04-10T07:28:05.000Z,100371.95
2018-04-10T07:30:33.327Z,100377.22
2018-04-10T07:33:01.826Z,100377.16
2018-04-10T07:35:30.329Z,100387.38
2018-04-10T07:37:58.660Z,100384.60
2018-04-10T07:40:26.988Z,100390.22
2018-04-10T07:42:55.388Z,100381.86
2018-04-10T07:45:24.461Z,100381.34
2018-04-10T07:47:52.800Z,100377.95
2018-04-10T07:50:22.175Z,100377.80
2018-04-10T07:52:50.542Z,100373.99
2018-04-10T07:55:18.903Z,100380.13
2018-04-10T07:57:47.289Z,100384.17
2018-04-10T08:00:15.595Z,100381.58
2018-04-10T08:02:44.669Z,100378.30
2018-04-10T08:05:13.020Z,100380.93
2018-04-10T08:07:41.431Z,100383.11
2018-04-10T08:10:09.788Z,100381.31
2018-04-10T08:12:38.507Z,100379.13
2018-04-10T08:15:07.606Z,100372.66
2018-04-10T08:17:35.908Z,100375.48
2018-04-10T08:20:04.236Z,100365.05
2018-04-10T08:22:32.598Z,100361.15
2018-04-10T08:25:00.972Z,100371.12
2018-04-10T08:27:29.349Z,100364.17
2018-04-10T08:29:57.696Z,100363.23
2018-04-10T08:32:26.027Z,100363.84
2018-04-10T08:34:54.562Z,100362.38
2018-04-10T08:37:22.895Z,100360.56
2018-04-10T08:39:51.228Z,100362.25
2018-04-10T08:42:19.581Z,100360.99
2018-04-10T08:44:48.670Z,100367.47
2018-04-10T08:47:17.758Z,100356.48
2018-04-10T08:49:46.115Z,100355.32
2018-04-10T08:52:14.470Z,100361.24
2018-04-10T08:54:42.803Z,100354.11
2018-04-10T08:57:12.409Z,100355.05
2018-04-10T08:59:40.726Z,100363.27
2018-04-10T09:02:09.080Z,100368.63
2018-04-10T09:04:37.417Z,100367.03
2018-04-10T09:07:05.743Z,100373.03
2018-04-10T09:09:34.131Z,100377.19
2018-04-10T09:12:03.238Z,100373.42
2018-04-10T09:14:31.543Z,100374.41
2018-04-10T09:16:59.846Z,100364.72
2018-04-10T09:19:28.439Z,100366.20
2018-04-10T09:21:57.581Z,100368.55
2018-04-10T09:24:25.928Z,100371.74
2018-04-10T09:26:54.295Z,100365.00
2018-04-10T09:29:23.403Z,100363.96
2018-04-10T09:31:52.479Z,100355.87
2018-04-10T09:34:20.864Z,100359.56
2018-04-10T09:36:49.195Z,100358.02
2018-04-10T09:39:17.552Z,100358.69
2018-04-10T09:41:45.983Z,100357.85
2018-04-10T09:44:14.327Z,100354.67
2018-04-10T09:46:42.677Z,100357.41
2018-04-10T09:49:11.020Z,100358.34
2018-04-10T09:51:39.351Z,100355.95
2018-04-10T09:54:07.669Z,100356.02
2018-04-10T09:56:36.007Z,100358.03
2018-04-10T09:59:04.337Z,100360.00
2018-04-10T10:01:32.666Z,100357.70
2018-04-10T10:04:01.242Z,100353.50
2018-04-10T10:06:29.591Z,100354.98
2018-04-10T10:08:58.802Z,100359.81
2018-04-10T10:11:27.170Z,100361.67
2018-04-10T10:13:55.518Z,100353.95
2018-04-10T10:16:23.827Z,100352.83
2018-04-10T10:18:52.191Z,100342.82
2018-04-10T10:21:21.302Z,100343.38
2018-04-10T10:23:49.684Z,100351.23
2018-04-10T10:26:18.184Z,100347.66
2018-04-10T10:28:46.519Z,100345.48
2018-04-10T10:31:14.849Z,100352.85
2018-04-10T10:33:43.244Z,100371.64
2018-04-10T10:36:11.559Z,100344.02
2018-04-10T10:38:39.875Z,100357.63
2018-04-10T10:41:08.995Z,100346.97
2018-04-10T10:43:37.341Z,100357.81
2018-04-10T10:46:05.680Z,100353.58
2018-04-10T10:48:34.311Z,100358.84
2018-04-10T10:51:02.663Z,100355.94
2018-04-10T10:53:31.085Z,100358.91
2018-04-10T10:55:59.437Z,100361.77
2018-04-10T10:58:27.747Z,100373.30
2018-04-10T11:00:56.063Z,100348.15
2018-04-10T11:03:24.430Z,100361.55
2018-04-10T11:05:52.779Z,100368.12
2018-04-10T11:08:21.135Z,100373.30
2018-04-10T11:10:49.823Z,100358.62
2018-04-10T11:13:18.153Z,100365.08
2018-04-10T11:15:46.468Z,100358.94
2018-04-10T11:18:14.858Z,100360.04
2018-04-10T11:20:44.176Z,100360.14
2018-04-10T11:23:13.307Z,100350.19
2018-04-10T11:25:41.692Z,100352.87
2018-04-10T11:28:10.830Z,100362.47
2018-04-10T11:30:39.164Z,100367.19
2018-04-10T11:33:07.956Z,100367.66
2018-04-10T11:35:36.278Z,100362.28
2018-04-10T11:38:04.597Z,100360.13
2018-04-10T11:40:32.968Z,100356.75
2018-04-10T11:43:01.287Z,100349.59
2018-04-10T11:45:29.649Z,100357.59
2018-04-10T11:47:58.022Z,100357.98
2018-04-10T11:50:26.328Z,100352.00
2018-04-10T11:52:54.646Z,100358.49
2018-04-10T11:55:24.233Z,100356.23
2018-04-10T11:57:52.543Z,100351.80
2018-04-10T12:00:20.850Z,100352.04
2018-04-10T12:02:49.218Z,100350.63
2018-04-10T12:05:17.563Z,100363.50
2018-04-10T12:07:46.627Z,100360.63
2018-04-10T12:10:14.994Z,100361.86
2018-04-10T12:12:43.322Z,100362.76
2018-04-10T12:15:11.649Z,100355.69
2018-04-10T12:17:40.299Z,100368.42
2018-04-10T12:20:08.635Z,100357.66
2018-04-10T12:22:36.972Z,100363.28
2018-04-10T12:25:05.308Z,100361.91
2018-04-10T12:27:33.632Z,100363.88
2018-04-10T12:30:01.949Z,100367.86
2018-04-10T12:32:30.307Z,100373.34
2018-04-10T12:34:58.613Z,100373.86
2018-04-10T12:37:26.942Z,100374.42
2018-04-10T12:39:55.379Z,100371.11
2018-04-10T12:42:23.712Z,100364.40
2018-04-10T12:44:52.057Z,100373.17
2018-04-10T12:47:20.427Z,100376.48
2018-04-10T12:49:49.505Z,100379.84
2018-04-10T12:52:17.815Z,100379.73
2018-04-10T12:54:46.174Z,100380.11
2018-04-10T12:57:15.287Z,100387.67
2018-04-10T12:59:43.625Z,100380.78
2018-04-10T13:02:12.168Z,100385.69
2018-04-10T13:04:40.506Z,100385.53
2018-04-10T13:07:08.803Z,100393.89
2018-04-10T13:09:37.921Z,100397.22
2018-04-10T13:12:06.239Z,100396.45
2018-04-10T13:14:34.559Z,100386.73
2018-04-10T13:17:02.901Z,100389.27
2018-04-10T13:19:31.207Z,100392.06
2018-04-10T13:21:59.527Z,100394.97
2018-04-10T13:24:28.251Z,100388.31
2018-04-10T13:26:56.564Z,100390.77
2018-04-10T13:29:24.912Z,100402.50
2018-04-10T13:31:53.284Z,100397.20
2018-04-10T13:34:21.658Z,100398.50
2018-04-10T13:36:50.019Z,100408.00
2018-04-10T13:39:18.357Z,100404.09
2018-04-10T13:41:46.675Z,100399.98
2018-04-10T13:44:14.994Z,100406.50
2018-04-10T13:46:44.192Z,100402.70
2018-04-10T13:49:12.596Z,100410.80
2018-04-10T13:51:41.672Z,100409.87
2018-04-10T13:54:10.779Z,100404.98
2018-04-10T13:56:40.262Z,100400.84
2018-04-10T13:59:08.599Z,100410.74
2018-04-10T14:01:36.937Z,100405.99
2018-04-10T14:04:05.281Z,100410.80
2018-04-10T14:06:33.653Z,100407.34
2018-04-10T14:09:02.200Z,100414.88
2018-04-10T14:11:30.569Z,100412.03
2018-04-10T14:13:58.925Z,100419.48
2018-04-10T14:16:27.290Z,100420.30
2018-04-10T14:18:55.643Z,100418.03
2018-04-10T14:21:23.967Z,100420.00
2018-04-10T14:23:53.094Z,100418.99
2018-04-10T14:26:21.444Z,100410.72
2018-04-10T14:28:50.532Z,100405.70
2018-04-10T14:31:19.011Z,100409.19
2018-04-10T14:33:47.316Z,100411.16
2018-04-10T14:36:16.398Z,100412.47
2018-04-10T14:38:45.551Z,100416.90
2018-04-10T14:41:13.902Z,100411.74
2018-04-10T14:43:42.247Z,100408.84
2018-04-10T14:46:11.366Z,100407.33
2018-04-10T14:48:39.697Z,100415.77
2018-04-10T14:51:08.044Z,100408.09
2018-04-10T14:53:36.668Z,100414.41
2018-04-10T14:56:04.973Z,100412.99
2018-04-10T14:58:33.410Z,100410.87
2018-04-10T15:01:01.789Z,100414.24
2018-04-10T15:03:30.100Z,100421.29
2018-04-10T15:05:58.432Z,100409.56
2018-04-10T15:08:26.839Z,100412.02
2018-04-10T15:10:55.175Z,100410.44
2018-04-10T15:13:23.498Z,100412.14
2018-04-10T15:15:51.910Z,100415.12
2018-04-10T15:18:20.260Z,100419.11
2018-04-10T15:20:48.607Z,100416.63
2018-04-10T15:23:16.932Z,100423.26
2018-04-10T15:25:45.245Z,100406.16
2018-04-10T15:28:13.568Z,100414.46
2018-04-10T15:30:41.937Z,100420.08
2018-04-10T15:33:10.246Z,100416.38
2018-04-10T15:35:38.583Z,100423.26
2018-04-10T15:38:07.004Z,100425.61
2018-04-10T15:40:36.073Z,100432.28
2018-04-10T15:43:04.395Z,100418.90
2018-04-10T15:45:33.503Z,100424.34
2018-04-10T15:48:01.847Z,100422.06
2018-04-10T15:50:30.194Z,100427.42
2018-04-10T15:52:58.564Z,100428.14
2018-04-10T15:55:26.914Z,100432.58
2018-04-10T15:57:55.238Z,100438.07
2018-04-10T16:00:24.257Z,100438.97
2018-04-10T16:02:52.604Z,100435.26
2018-04-10T16:05:20.965Z,100444.37
2018-04-10T16:07:49.315Z,100443.78
2018-04-10T16:10:17.663Z,100458.00
2018-04-10T16:12:46.000Z,100447.81
2018-04-10T16:15:14.355Z,100455.16
2018-04-10T16:17:42.681Z,100454.66
2018-04-10T16:20:10.975Z,100460.55
2018-04-10T16:22:39.508Z,100454.84
2018-04-10T16:25:07.820Z,100462.53
2018-04-10T16:27:36.148Z,100466.17
2018-04-10T16:30:04.511Z,100470.67
2018-04-10T16:32:33.590Z,100465.70
2018-04-10T16:35:01.896Z,100468.95
2018-04-10T16:37:31.007Z,100474.30
2018-04-10T16:40:00.108Z,100468.38
2018-04-10T16:42:28.444Z,100465.62
2018-04-10T16:44:56.859Z,100462.55
2018-04-10T16:47:25.958Z,100468.11
2018-04-10T16:49:54.296Z,100473.45
2018-04-10T16:52:22.621Z,100484.13
2018-04-10T16:54:51.027Z,100490.97
2018-04-10T16:57:19.356Z,100492.22
2018-04-10T16:59:48.473Z,100495.43
2018-04-10T17:02:16.779Z,100497.38
2018-04-10T17:04:45.116Z,100509.30
2018-04-10T17:07:14.576Z,100507.94
2018-04-10T17:09:42.913Z,100504.03
2018-04-10T17:12:11.255Z,100514.91
2018-04-10T17:14:39.658Z,100515.08
2018-04-10T17:17:08.793Z,100518.75
2018-04-10T17:19:38.854Z,100518.55
2018-04-10T17:22:07.231Z,100510.75
2018-04-10T17:24:35.588Z,100516.65
2018-04-10T17:27:03.950Z,100525.17
2018-04-10T17:29:33.526Z,100531.59
2018-04-10T17:32:01.891Z,100542.91
2018-04-10T17:34:31.077Z,100540.17
2018-04-10T17:36:59.521Z,100539.29
2018-04-10T17:39:27.849Z,100545.31
2018-04-10T17:41:56.212Z,100558.23
2018-04-10T17:44:24.610Z,100566.91
2018-04-10T17:46:52.937Z,100556.70
2018-04-10T17:49:21.247Z,100555.32
2018-04-10T17:51:50.429Z,100571.21
2018-04-10T17:54:18.745Z,100574.44
2018-04-10T17:56:47.066Z,100570.04
2018-04-10T17:59:15.408Z,100574.05
2018-04-10T18:01:44.901Z,100583.72
2018-04-10T18:04:14.005Z,100586.35
2018-04-10T18:06:43.140Z,100598.52
2018-04-10T18:09:11.476Z,100606.48
2018-04-10T18:11:40.563Z,100611.25
2018-04-10T18:14:09.195Z,100603.11
2018-04-10T18:16:37.521Z,100608.06
2018-04-10T18:19:05.876Z,100615.98
2018-04-10T18:21:34.230Z,100621.70
2018-04-10T18:24:02.573Z,100619.98
2018-04-10T18:26:31.664Z,100626.30
2018-04-10T18:29:00.047Z,100615.48
2018-04-10T18:31:29.133Z,100629.74
2018-04-10T18:33:57.487Z,100639.94
2018-04-10T18:36:25.952Z,100629.15
2018-04-10T18:38:54.291Z,100637.30
2018-04-10T18:41:22.618Z,100647.13
2018-04-10T18:43:50.996Z,100649.72
2018-04-10T18:46:19.343Z,100651.19
2018-04-10T18:48:47.681Z,100661.59
2018-04-10T18:51:16.040Z,100663.34
2018-04-10T18:53:44.390Z,100668.54
2018-04-10T18:56:12.848Z,100672.14
2018-04-10T18:58:42.096Z,100672.42
2018-04-10T19:01:10.514Z,100678.58
2018-04-10T19:03:40.226Z,100676.86
2018-04-10T19:06:08.795Z,100680.09
2018-04-10T19:08:37.155Z,100688.78
2018-04-10T19:11:05.532Z,100682.98
2018-04-10T19:13:33.971Z,100686.53
2018-04-10T19:16:02.299Z,100684.78
2018-04-10T19:18:30.669Z,100692.41
2018-04-10T19:20:59.442Z,100686.95
2018-04-10T19:23:27.881Z,100693.70
2018-04-10T19:25:57.085Z,100693.75
2018-04-10T19:28:25.459Z,100701.55
2018-04-10T19:30:54.582Z,100707.05
2018-04-10T19:33:22.960Z,100701.09
2018-04-10T19:35:51.295Z,100707.03
2018-04-10T19:38:19.641Z,100700.95
2018-04-10T19:40:47.987Z,100703.58
2018-04-10T19:43:17.391Z,100697.56
2018-04-10T19:45:46.520Z,100698.85
2018-04-10T19:48:15.747Z,100700.88
2018-04-10T19:50:44.396Z,100702.48
2018-04-10T19:53:12.812Z,100703.15
2018-04-10T19:55:41.122Z,100707.03
2018-04-10T19:58:10.312Z,100709.23
2018-04-10T20:00:38.652Z,100707.11
2018-04-10T20:03:06.984Z,100708.05
2018-04-10T20:05:36.037Z,100712.48
2018-04-10T20:08:04.357Z,100717.36
2018-04-10T20:10:32.679Z,100716.32
2018-04-10T20:13:01.018Z,100727.67
2018-04-10T20:15:29.340Z,100723.00
2018-04-10T20:17:57.668Z,100724.27
2018-04-10T20:20:26.761Z,100723.17
2018-04-10T20:22:55.083Z,100724.14
2018-04-10T20:25:23.391Z,100730.49
2018-04-10T20:27:51.895Z,100734.89
2018-04-10T20:30:21.017Z,100738.97
2018-04-10T20:32:49.335Z,100740.40
2018-04-10T20:35:17.716Z,100739.45
2018-04-10T20:37:46.067Z,100736.66
2018-04-10T20:40:14.552Z,100743.85
2018-04-10T20:42:42.879Z,100757.21
2018-04-10T20:45:11.246Z,100752.40
2018-04-10T20:47:39.585Z,100751.16
2018-04-10T20:50:08.434Z,100751.55
2018-04-10T20:52:37.524Z,100757.84
2018-04-10T20:55:05.863Z,100766.48
2018-04-10T20:57:34.219Z,100760.60
2018-04-10T21:00:02.528Z,100763.27
2018-04-10T21:02:30.856Z,100769.44
2018-04-10T21:04:59.991Z,100769.34
2018-04-10T21:07:28.341Z,100787.38
2018-04-10T21:09:56.726Z,100789.16
2018-04-10T21:12:25.191Z,100794.28
2018-04-10T21:14:53.582Z,100782.38
2018-04-10T21:17:21.951Z,100786.90
2018-04-10T21:19:51.093Z,100786.23
2018-04-10T21:22:19.423Z,100785.84
2018-04-10T21:24:48.941Z,100793.81
2018-04-10T21:27:17.352Z,100791.77
2018-04-10T21:29:45.665Z,100798.73
2018-04-10T21:32:13.984Z,100794.82
2018-04-10T21:34:42.738Z,100798.23
2018-04-10T21:37:11.055Z,100797.08
2018-04-10T21:39:39.443Z,100798.14
2018-04-10T21:42:07.888Z,100802.05
2018-04-10T21:44:36.246Z,100808.98
2018-04-10T21:47:05.200Z,100805.75
2018-04-10T21:49:33.880Z,100811.69
2018-04-10T21:52:02.183Z,100818.96
2018-04-10T21:54:30.799Z,100818.80
2018-04-10T21:57:00.137Z,100824.39
2018-04-10T21:59:28.487Z,100814.09
2018-04-10T22:01:56.958Z,100822.28
2018-04-10T22:04:25.354Z,100829.40
2018-04-10T22:06:54.611Z,100820.26
2018-04-10T22:09:22.975Z,100824.02
2018-04-10T22:11:51.333Z,100819.67
2018-04-10T22:14:19.719Z,100827.45
2018-04-10T22:16:48.257Z,100830.51
2018-04-10T22:19:17.159Z,100828.50
2018-04-10T22:21:46.411Z,100834.23
2018-04-10T22:24:14.792Z,100835.08
2018-04-10T22:26:43.276Z,100834.42
2018-04-10T22:29:11.766Z,100826.08
2018-04-10T22:31:40.172Z,100829.58
2018-04-10T22:34:08.643Z,100831.00
2018-04-10T22:36:37.852Z,100828.34
2018-04-10T22:39:07.097Z,100834.69
2018-04-10T22:41:35.717Z,100836.15
2018-04-10T22:44:04.125Z,100835.19
2018-04-10T22:46:32.631Z,100837.27
2018-04-10T22:49:01.053Z,100835.15
2018-04-10T22:51:29.534Z,100841.34
2018-04-10T22:53:57.935Z,100842.59
2018-04-10T22:56:27.123Z,100842.47
2018-04-10T22:58:56.319Z,100843.32
2018-04-10T23:01:24.704Z,100849.67
2018-04-10T23:03:53.331Z,100845.61
2018-04-10T23:06:21.638Z,100846.60
2018-04-10T23:08:50.360Z,100849.27
2018-04-10T23:11:18.722Z,100843.22
2018-04-10T23:13:47.044Z,100866.52
2018-04-10T23:16:15.406Z,100857.45
2018-04-10T23:18:43.760Z,100853.02
2018-04-10T23:21:12.088Z,100851.70
2018-04-10T23:23:41.177Z,100855.51
2018-04-10T23:26:09.638Z,100860.43
2018-04-10T23:28:37.979Z,100856.27
2018-04-10T23:31:06.298Z,100861.00
2018-04-10T23:33:34.656Z,100857.27
2018-04-10T23:36:02.975Z,100855.89
2018-04-10T23:38:31.282Z,100859.69
2018-04-10T23:40:59.657Z,100857.00
2018-04-10T23:43:27.988Z,100851.09
2018-04-10T23:45:56.314Z,100856.45
2018-04-10T23:48:24.736Z,100851.97
2018-04-10T23:50:53.063Z,100842.86
2018-04-10T23:53:21.378Z,100843.03
2018-04-10T23:55:49.735Z,100845.31
2018-04-10T23:58:18.052Z,100848.68
